Time;durP1;ratioP1;P1;durP2;ratioP2;P2;SDS_P1;SDS_P2;PMS_P1;PMS_P2;Temp;Humidity;BMP_temperature;BMP_pressure;BME280_temperature;BME280_humidity;BME280_pressure;Samples;Min_cycle;Max_cycle;Signal;HPM_P1;HPM_P2
2022/03/14 00:01:31;;;;;;;11.10;8.60;;;;;;;4.38;50.02;101009.03;5071686;28;20224;-66
2022/03/14 00:03:59;;;;;;;9.30;8.33;;;;;;;4.34;50.83;101006.78;5072131;28;20192;-67
2022/03/14 00:06:26;;;;;;;12.77;8.43;;;;;;;4.32;52.52;101009.53;5071807;28;20223;-67
2022/03/14 00:08:55;;;;;;;14.80;9.73;;;;;;;4.30;51.76;101010.63;5071688;28;20192;-67
2022/03/14 00:11:23;;;;;;;14.20;9.10;;;;;;;4.04;52.01;101004.72;5071693;28;20234;-67
2022/03/14 00:13:50;;;;;;;15.80;10.37;;;;;;;4.04;54.26;101014.44;5071641;28;20192;-67
2022/03/14 00:16:23;;;;;;;11.70;8.70;;;;;;;4.02;54.04;101006.66;5071609;28;20445;-67
2022/03/14 00:18:51;;;;;;;14.17;9.57;;;;;;;4.04;54.39;101015.25;5071379;28;20648;-67
2022/03/14 00:21:23;;;;;;;13.23;10.07;;;;;;;4.00;53.34;101013.81;5071535;28;20263;-67
2022/03/14 00:23:50;;;;;;;12.60;9.17;;;;;;;3.95;52.95;101015.09;5071280;28;20677;-67
2022/03/14 00:26:16;;;;;;;16.17;10.10;;;;;;;3.91;53.03;101019.78;5071264;28;20203;-67
2022/03/14 00:28:43;;;;;;;11.23;9.40;;;;;;;3.94;54.09;101010.81;5071737;28;20594;-67
2022/03/14 00:31:10;;;;;;;14.77;10.97;;;;;;;3.96;54.97;101017.63;5071524;28;20203;-68
2022/03/14 00:33:39;;;;;;;17.37;13.10;;;;;;;3.96;54.10;101017.63;5071226;28;20686;-68
2022/03/14 00:36:08;;;;;;;13.37;10.87;;;;;;;3.96;54.11;101012.38;5071499;28;20191;-67
2022/03/14 00:38:36;;;;;;;18.10;13.13;;;;;;;3.84;54.43;101012.47;5075467;28;20278;-67
2022/03/14 00:41:03;;;;;;;22.30;13.93;;;;;;;3.71;54.70;101016.97;5074991;28;20219;-67
2022/03/14 00:43:30;;;;;;;22.13;13.13;;;;;;;3.67;55.60;101020.78;5074612;28;20195;-67
2022/03/14 00:45:57;;;;;;;26.73;11.97;;;;;;;3.70;55.78;101021.41;5074891;28;20253;-67
2022/03/14 00:48:24;;;;;;;17.13;11.80;;;;;;;3.60;56.07;101022.19;5074794;28;20196;-67
2022/03/14 00:50:51;;;;;;;17.43;12.20;;;;;;;3.51;56.12;101020.28;5074654;28;20845;-67
2022/03/14 00:53:18;;;;;;;18.10;11.90;;;;;;;3.49;57.99;101017.75;5075030;28;20555;-67
2022/03/14 00:55:46;;;;;;;18.00;12.33;;;;;;;3.53;57.12;101019.19;5074705;28;20192;-67
2022/03/14 00:58:13;;;;;;;19.53;12.67;;;;;;;3.46;57.16;101017.97;5074361;28;20222;-67
2022/03/14 01:00:40;;;;;;;15.50;12.40;;;;;;;3.44;57.77;101024.28;5074844;28;20196;-67
2022/03/14 01:03:06;;;;;;;16.87;11.93;;;;;;;3.42;57.91;101024.41;5074579;28;20188;-67
2022/03/14 01:05:33;;;;;;;14.60;11.63;;;;;;;3.39;57.75;101022.00;5074106;28;20296;-67
2022/03/14 01:08:00;;;;;;;17.57;11.47;;;;;;;3.44;57.85;101029.53;5074432;28;20495;-67
2022/03/14 01:10:28;;;;;;;13.80;11.63;;;;;;;3.44;57.45;101030.38;5074682;28;20249;-67
2022/03/14 01:12:57;;;;;;;14.30;11.53;;;;;;;3.49;58.40;101028.25;5074071;28;20678;-67
2022/03/14 01:15:24;;;;;;;14.87;11.67;;;;;;;3.55;57.80;101030.41;5074009;28;20942;-67
2022/03/14 01:17:50;;;;;;;13.57;11.63;;;;;;;3.52;57.74;101027.19;5073948;28;20949;-67
2022/03/14 01:20:19;;;;;;;12.07;10.77;;;;;;;3.50;58.52;101034.34;5074463;28;20820;-67
2022/03/14 01:22:46;;;;;;;17.57;13.00;;;;;;;3.41;58.95;101025.34;5073832;28;20219;-67
2022/03/14 01:25:12;;;;;;;16.90;11.90;;;;;;;3.28;59.29;101035.09;5074144;28;20434;-67
2022/03/14 01:27:39;;;;;;;23.80;13.93;;;;;;;3.12;59.17;101034.53;5074084;28;20442;-67
2022/03/14 01:30:08;;;;;;;18.17;13.43;;;;;;;2.90;61.14;101034.38;5073734;28;20969;-67
2022/03/14 01:32:35;;;;;;;27.20;14.93;;;;;;;2.90;61.10;101039.63;5074017;28;20476;-67
2022/03/14 01:35:02;;;;;;;25.07;14.20;;;;;;;2.95;61.55;101037.53;5080528;28;20507;-67
2022/03/14 01:37:31;;;;;;;29.63;14.90;;;;;;;2.99;61.51;101031.09;5093795;28;20933;-67
2022/03/14 01:39:58;;;;;;;27.63;14.40;;;;;;;3.08;62.37;101033.09;5093802;28;20195;-67
2022/03/14 01:42:25;;;;;;;25.30;14.77;;;;;;;3.15;61.67;101038.72;5093946;28;20526;-67
2022/03/14 01:44:52;;;;;;;27.17;16.30;;;;;;;3.14;61.59;101043.13;5093640;28;20952;-67
2022/03/14 01:47:20;;;;;;;23.87;15.07;;;;;;;3.09;61.58;101047.88;5093314;28;20858;-67
2022/03/14 01:49:47;;;;;;;29.90;15.40;;;;;;;3.09;62.42;101050.50;5093943;28;20600;-67
2022/03/14 01:52:14;;;;;;;24.10;15.17;;;;;;;3.04;62.51;101051.78;5093492;28;20828;-67
2022/03/14 01:54:41;;;;;;;28.73;16.80;;;;;;;3.04;62.58;101055.25;5093475;28;20815;-67
2022/03/14 01:57:09;;;;;;;25.87;17.20;;;;;;;3.15;62.43;101055.28;5093726;28;20433;-67
2022/03/14 01:59:37;;;;;;;29.30;17.07;;;;;;;3.21;61.60;101065.38;5093379;28;20441;-67
2022/03/14 02:02:04;;;;;;;26.97;18.70;;;;;;;3.18;61.93;101064.75;5093776;28;21007;-67
2022/03/14 02:04:33;;;;;;;29.23;17.80;;;;;;;3.27;61.23;101069.34;5093396;28;20534;-67
2022/03/14 02:06:59;;;;;;;29.33;17.60;;;;;;;3.25;61.09;101072.06;5093549;28;20437;-67
2022/03/14 02:09:26;;;;;;;28.97;18.50;;;;;;;3.32;61.47;101068.06;5093214;28;20441;-67
2022/03/14 02:12:05;;;;;;;28.40;18.07;;;;;;;3.39;61.69;101085.03;5093150;28;20449;-67
2022/03/14 02:14:35;;;;;;;25.10;17.83;;;;;;;3.42;62.08;101083.97;5093747;28;20500;-67
2022/03/14 02:17:01;;;;;;;31.47;19.50;;;;;;;3.35;62.48;101086.19;5093355;28;20437;-67
2022/03/14 02:19:28;;;;;;;26.63;18.17;;;;;;;3.33;62.59;101085.47;5093283;28;20529;-67
2022/03/14 02:21:56;;;;;;;28.37;18.80;;;;;;;3.32;63.12;101096.09;5093450;28;20480;-67
2022/03/14 02:24:27;;;;;;;25.13;18.43;;;;;;;3.30;62.75;101096.19;5092913;28;20463;-67
2022/03/14 02:26:53;;;;;;;25.13;18.50;;;;;;;3.23;64.19;101105.47;5092941;28;20429;-67
2022/03/14 02:29:20;;;;;;;26.70;18.27;;;;;;;3.20;64.39;101100.44;5092863;28;20536;-67
2022/03/14 02:31:47;;;;;;;27.23;17.93;;;;;;;3.12;64.47;101102.78;5093151;28;20494;-67
2022/03/14 02:34:14;;;;;;;24.30;17.17;;;;;;;3.07;64.34;101111.94;5093057;28;20437;-67
2022/03/14 02:36:41;;;;;;;27.83;17.43;;;;;;;3.01;65.36;101110.56;5093260;28;20470;-67
2022/03/14 02:39:09;;;;;;;29.23;16.67;;;;;;;2.92;65.49;101110.38;5093202;28;20520;-66
2022/03/14 02:41:37;;;;;;;29.47;17.80;;;;;;;2.89;65.61;101105.34;5092536;28;20472;-67
2022/03/14 02:44:06;;;;;;;27.50;17.00;;;;;;;2.87;65.55;101112.50;5092879;28;20434;-67
2022/03/14 02:46:36;;;;;;;25.10;16.70;;;;;;;2.84;66.86;101116.19;5093110;28;20514;-67
2022/03/14 02:49:03;;;;;;;24.70;16.63;;;;;;;2.79;66.45;101114.81;5092814;28;20472;-67
2022/03/14 02:51:30;;;;;;;27.90;17.57;;;;;;;2.83;66.62;101117.13;5092469;28;20945;-67
2022/03/14 02:53:57;;;;;;;28.97;17.03;;;;;;;2.84;67.54;101124.06;5092649;28;20494;-67
2022/03/14 02:56:25;;;;;;;26.17;17.17;;;;;;;2.73;67.56;101129.19;5092957;28;20528;-67
2022/03/14 02:58:54;;;;;;;29.50;18.00;;;;;;;2.63;67.15;101120.31;5092358;28;20441;-67
2022/03/14 03:01:22;;;;;;;28.90;18.23;;;;;;;2.58;67.70;101122.38;5092532;28;20444;-67
2022/03/14 03:03:49;;;;;;;36.27;18.93;;;;;;;2.58;67.26;101132.88;5092944;28;20529;-68
2022/03/14 03:06:16;;;;;;;30.70;17.23;;;;;;;2.53;67.24;101134.97;5092883;28;20425;-67
2022/03/14 03:08:44;;;;;;;25.53;16.23;;;;;;;2.46;67.08;101143.38;5092214;28;20961;-67
2022/03/14 03:11:11;;;;;;;22.53;15.87;;;;;;;2.39;67.43;101137.72;5092152;28;20445;-67
2022/03/14 03:13:42;;;;;;;23.70;17.23;;;;;;;2.21;68.40;101138.94;5093305;28;20498;-67
2022/03/14 03:16:09;;;;;;;22.33;16.10;;;;;;;2.10;69.10;101140.59;5092223;28;20427;-67
2022/03/14 03:18:36;;;;;;;23.27;17.03;;;;;;;2.11;68.46;101139.66;5092479;28;20449;-68
2022/03/14 03:21:04;;;;;;;32.47;18.90;;;;;;;2.12;68.71;101143.97;5092118;28;20448;-67
2022/03/14 03:23:31;;;;;;;23.90;16.63;;;;;;;2.15;69.28;101144.59;5092252;28;20533;-67
2022/03/14 03:25:58;;;;;;;23.03;16.90;;;;;;;2.14;69.18;101145.56;5092592;28;20433;-68
2022/03/14 03:28:24;;;;;;;21.83;15.37;;;;;;;2.05;69.27;101153.19;5091976;28;20502;-67
2022/03/14 03:30:53;;;;;;;26.10;16.93;;;;;;;1.90;69.95;101141.94;5091997;28;20854;-67
2022/03/14 03:33:19;;;;;;;26.27;16.67;;;;;;;1.89;70.39;101147.28;5093094;28;20433;-67
2022/03/14 03:35:46;;;;;;;25.13;15.90;;;;;;;1.95;70.39;101152.09;5092195;28;20433;-67
2022/03/14 03:38:13;;;;;;;23.07;17.20;;;;;;;1.95;69.57;101149.47;5091910;28;21021;-67
2022/03/14 03:40:39;;;;;;;23.77;16.93;;;;;;;1.92;70.55;101153.13;5091898;28;20440;-68
2022/03/14 03:43:06;;;;;;;21.53;15.80;;;;;;;1.88;70.30;101163.94;5092099;28;20480;-67
2022/03/14 03:45:33;;;;;;;21.17;15.33;;;;;;;1.94;70.31;101161.75;5092137;28;20510;-67
2022/03/14 03:48:01;;;;;;;23.57;16.03;;;;;;;2.03;69.37;101161.13;5092153;28;20491;-67
2022/03/14 03:50:28;;;;;;;26.77;15.80;;;;;;;2.13;69.22;101167.47;5092343;28;20506;-67
2022/03/14 03:52:54;;;;;;;19.77;15.47;;;;;;;2.17;68.50;101168.91;5092109;28;20441;-67
2022/03/14 03:55:21;;;;;;;24.33;15.37;;;;;;;2.28;68.65;101166.44;5091741;28;20449;-67
2022/03/14 03:57:48;;;;;;;29.17;15.73;;;;;;;2.39;67.56;101174.41;5092005;28;20502;-67
2022/03/14 04:00:15;;;;;;;33.80;16.33;;;;;;;2.51;67.60;101173.59;5091637;28;20437;-67
2022/03/14 04:02:44;;;;;;;100.33;19.20;;;;;;;2.64;67.36;101177.06;5091917;28;20508;-67
2022/03/14 04:05:18;;;;;;;75.40;17.77;;;;;;;2.68;66.01;101186.41;5091637;28;20512;-67
2022/03/14 04:07:44;;;;;;;36.53;16.33;;;;;;;2.72;65.95;101197.50;5091598;28;20936;-68
2022/03/14 04:10:12;;;;;;;39.33;16.40;;;;;;;2.81;64.12;101192.47;5091938;28;20490;-68
2022/03/14 04:12:40;;;;;;;29.83;16.13;;;;;;;2.89;63.21;101195.41;5096369;28;20506;-67
2022/03/14 04:15:07;;;;;;;19.97;14.37;;;;;;;2.99;62.97;101204.31;5096311;28;20493;-67
2022/03/14 04:17:35;;;;;;;17.20;13.80;;;;;;;3.01;62.57;101206.84;5095685;28;20436;-67
2022/03/14 04:20:02;;;;;;;30.60;16.00;;;;;;;3.03;62.52;101211.03;5096670;28;20514;-67
2022/03/14 04:22:32;;;;;;;20.13;14.43;;;;;;;3.11;61.84;101203.47;5095473;28;20833;-68
2022/03/14 04:24:58;;;;;;;22.00;13.50;;;;;;;3.10;61.88;101220.16;5095274;28;20429;-67
2022/03/14 04:27:26;;;;;;;20.33;14.57;;;;;;;3.10;61.58;101214.91;5095174;28;20455;-67
2022/03/14 04:29:52;;;;;;;24.97;15.40;;;;;;;3.14;61.98;101213.75;5095108;28;20237;-67
2022/03/14 04:32:19;;;;;;;25.80;15.20;;;;;;;3.12;61.10;101226.16;5095640;28;20440;-67
2022/03/14 04:34:46;;;;;;;26.50;15.93;;;;;;;3.08;60.35;101226.47;5095335;28;20433;-67
2022/03/14 04:37:13;;;;;;;26.17;16.57;;;;;;;3.07;60.67;101236.13;5095296;28;20443;-67
2022/03/14 04:39:42;;;;;;;26.63;17.30;;;;;;;3.00;60.94;101232.25;5095502;28;20532;-67
2022/03/14 04:42:09;;;;;;;29.83;15.60;;;;;;;3.11;60.64;101232.34;5095424;28;20188;-67
2022/03/14 04:44:36;;;;;;;26.87;15.77;;;;;;;3.23;61.28;101233.28;5095185;28;20437;-67
2022/03/14 04:47:04;;;;;;;25.33;16.80;;;;;;;3.26;60.26;101236.53;5095538;28;20958;-67
2022/03/14 04:49:31;;;;;;;27.80;16.47;;;;;;;3.25;61.40;101234.88;5095887;28;20498;-67
2022/03/14 04:51:57;;;;;;;25.87;16.33;;;;;;;3.26;59.86;101241.78;5095260;28;20425;-67
2022/03/14 04:54:24;;;;;;;30.37;19.37;;;;;;;3.18;60.24;101238.84;5094654;28;20663;-68
2022/03/14 04:56:54;;;;;;;36.90;21.90;;;;;;;3.18;60.52;101246.72;5094655;28;20467;-68
2022/03/14 04:59:21;;;;;;;28.53;17.07;;;;;;;3.15;60.29;101248.75;5095585;28;20215;-68
2022/03/14 05:01:48;;;;;;;25.60;17.97;;;;;;;3.05;61.13;101253.78;5094609;28;20500;-67
2022/03/14 05:04:15;;;;;;;26.50;16.47;;;;;;;2.97;61.07;101244.75;5095095;28;20477;-67
2022/03/14 05:06:41;;;;;;;26.13;14.63;;;;;;;2.93;61.58;101253.78;5094446;28;20433;-68
2022/03/14 05:09:08;;;;;;;29.23;15.57;;;;;;;2.77;62.09;101259.22;5095666;28;20436;-68
2022/03/14 05:11:38;;;;;;;27.97;16.03;;;;;;;2.68;62.21;101259.84;5094302;28;20873;-67
2022/03/14 05:14:08;;;;;;;28.57;14.97;;;;;;;2.63;62.72;101245.34;5094481;28;20810;-68
2022/03/14 05:16:35;;;;;;;20.63;14.63;;;;;;;2.67;63.07;101242.44;5094210;28;21021;-68
2022/03/14 05:19:02;;;;;;;25.40;15.10;;;;;;;2.66;63.84;101255.66;5094049;28;20437;-69
2022/03/14 05:21:29;;;;;;;18.43;14.43;;;;;;;2.56;63.63;101263.28;5094023;28;20445;-69
2022/03/14 05:23:55;;;;;;;28.43;15.83;;;;;;;2.61;64.65;101276.13;5093639;28;20477;-73
2022/03/14 05:26:22;;;;;;;24.10;15.00;;;;;;;2.73;63.74;101284.00;5094281;28;20437;-72
2022/03/14 05:28:49;;;;;;;24.03;15.83;;;;;;;2.80;64.39;101282.63;5093888;28;20498;-72
2022/03/14 05:31:17;;;;;;;29.00;16.20;;;;;;;2.88;65.08;101272.47;5093812;28;20429;-73
2022/03/14 05:33:44;;;;;;;38.97;16.87;;;;;;;2.91;64.04;101276.66;5094748;28;20425;-72
2022/03/14 05:36:11;;;;;;;42.57;18.40;;;;;;;2.93;63.59;101280.00;5094037;28;20968;-72
2022/03/14 05:38:38;;;;;;;46.90;18.67;;;;;;;2.99;63.44;101283.06;5093724;28;20437;-77
2022/03/14 05:41:04;;;;;;;34.57;17.40;;;;;;;3.03;63.83;101279.28;5094007;28;20444;-78
2022/03/14 05:43:36;;;;;;;24.40;17.07;;;;;;;3.13;63.29;101285.59;5093881;28;20477;-78
2022/03/14 05:46:04;;;;;;;31.27;18.43;;;;;;;3.29;62.94;101288.00;5093972;28;20509;-77
2022/03/14 05:48:32;;;;;;;25.80;15.27;;;;;;;3.36;61.75;101290.13;5091779;28;20449;-72
2022/03/14 05:50:59;;;;;;;39.17;16.20;;;;;;;3.38;61.12;101296.09;5093843;28;20449;-71
2022/03/14 05:53:26;;;;;;;24.27;14.67;;;;;;;3.38;61.69;101298.72;5093083;28;20433;-72
2022/03/14 05:55:52;;;;;;;101.03;17.33;;;;;;;3.38;60.41;101301.34;5093325;28;20823;-72
2022/03/14 05:58:19;;;;;;;29.53;14.37;;;;;;;3.37;60.95;101309.31;5093953;28;20445;-72
2022/03/14 06:00:48;;;;;;;28.43;15.30;;;;;;;3.49;59.93;101309.31;5093272;28;20260;-72
2022/03/14 06:03:14;;;;;;;28.37;16.60;;;;;;;3.48;60.59;101307.63;5093174;28;20215;-71
2022/03/14 06:05:43;;;;;;;24.53;13.93;;;;;;;3.59;58.84;101302.47;5094604;28;20484;-72
2022/03/14 06:08:09;;;;;;;25.77;15.07;;;;;;;3.53;57.74;101297.66;5093558;28;20191;-71
2022/03/14 06:10:36;;;;;;;23.07;16.17;;;;;;;3.47;58.67;101305.94;5092508;28;20451;-72
2022/03/14 06:13:03;;;;;;;22.10;15.23;;;;;;;3.44;58.88;101306.16;5093420;28;20312;-71
2022/03/14 06:15:30;;;;;;;25.07;15.77;;;;;;;3.54;58.86;101299.31;5093305;28;20468;-70
2022/03/14 06:17:57;;;;;;;27.53;19.93;;;;;;;3.78;58.40;101307.25;5093803;28;20441;-71
2022/03/14 06:20:24;;;;;;;35.43;20.23;;;;;;;3.82;57.64;101317.47;5090384;28;20195;-71
2022/03/14 06:22:52;;;;;;;28.70;17.93;;;;;;;4.00;57.31;101317.94;5078252;28;20686;-71
2022/03/14 06:25:19;;;;;;;34.30;19.63;;;;;;;4.17;55.69;101330.72;5072310;28;20499;-71
2022/03/14 06:27:45;;;;;;;38.13;21.50;;;;;;;4.35;56.32;101330.22;5072505;28;20519;-70
2022/03/14 06:30:14;;;;;;;30.03;16.73;;;;;;;4.58;54.75;101325.91;5072489;28;20622;-69
2022/03/14 06:32:42;;;;;;;57.03;19.97;;;;;;;4.91;53.98;101336.56;5072942;28;20454;-69
2022/03/14 06:35:12;;;;;;;46.70;16.83;;;;;;;5.28;52.52;101346.81;5080711;28;20196;-69
2022/03/14 06:37:39;;;;;;;31.67;15.23;;;;;;;5.47;52.35;101347.06;5082275;28;20187;-70
2022/03/14 06:40:08;;;;;;;21.30;13.67;;;;;;;5.52;51.52;101347.56;5080033;28;20184;-70
2022/03/14 06:42:41;;;;;;;24.47;13.43;;;;;;;5.83;51.45;101355.75;5091384;28;20249;-73
2022/03/14 06:45:09;;;;;;;23.57;19.13;;;;;;;5.85;49.48;101359.09;5093011;28;20609;-69
2022/03/14 06:47:38;;;;;;;28.07;20.37;;;;;;;5.79;50.54;101350.69;5092864;28;20256;-68
2022/03/14 06:50:06;;;;;;;30.73;22.20;;;;;;;5.97;49.12;101359.00;5082259;28;20206;-69
2022/03/14 06:52:32;;;;;;;37.80;20.93;;;;;;;6.12;48.90;101357.75;5072435;28;20197;-69
2022/03/14 06:54:59;;;;;;;31.17;19.90;;;;;;;6.23;48.09;101348.97;5071993;28;20277;-71
2022/03/14 06:57:27;;;;;;;30.37;14.10;;;;;;;6.29;47.57;101367.78;5072110;28;20203;-69
2022/03/14 06:59:54;;;;;;;27.47;17.17;;;;;;;6.29;47.30;101364.34;5083743;28;20200;-70
2022/03/14 07:02:21;;;;;;;30.23;17.17;;;;;;;6.27;46.83;101376.78;5093169;28;20191;-69
2022/03/14 07:04:47;;;;;;;30.40;16.07;;;;;;;6.33;47.50;101376.31;5092593;28;20231;-69
2022/03/14 07:07:14;;;;;;;27.83;17.37;;;;;;;6.48;46.62;101375.91;5091734;28;20196;-70
2022/03/14 07:09:41;;;;;;;24.97;13.47;;;;;;;7.10;46.36;101378.69;5091965;28;20614;-70
2022/03/14 07:12:11;;;;;;;20.50;12.67;;;;;;;7.48;43.33;101377.13;5092827;28;20616;-71
2022/03/14 07:14:40;;;;;;;28.83;12.83;;;;;;;7.83;42.67;101374.09;5092404;28;20195;-70
2022/03/14 07:17:07;;;;;;;17.53;10.27;;;;;;;7.86;42.15;101376.50;5092494;28;20197;-70
2022/03/14 07:19:34;;;;;;;13.87;10.27;;;;;;;8.46;41.26;101373.78;5091529;28;20203;-69
2022/03/14 07:22:02;;;;;;;12.60;9.40;;;;;;;8.85;38.65;101371.03;5087387;28;20254;-69
2022/03/14 07:24:28;;;;;;;18.30;10.63;;;;;;;8.82;37.81;101376.63;5074181;28;20223;-69
2022/03/14 07:26:55;;;;;;;18.13;8.90;;;;;;;9.02;37.36;101378.28;5071674;28;20324;-70
2022/03/14 07:29:22;;;;;;;10.53;7.93;;;;;;;8.87;36.40;101360.31;5071918;28;20188;-70
2022/03/14 07:31:50;;;;;;;14.63;12.23;;;;;;;8.65;36.50;101379.09;5075778;28;20186;-69
2022/03/14 07:34:17;;;;;;;10.20;9.20;;;;;;;8.77;35.54;101383.28;5092157;28;20743;-70
2022/03/14 07:36:45;;;;;;;17.10;9.03;;;;;;;8.85;36.48;101376.34;5092608;28;20195;-70
2022/03/14 07:39:12;;;;;;;13.47;9.20;;;;;;;8.95;36.70;101376.34;5092374;28;20191;-69
2022/03/14 07:41:38;;;;;;;9.23;8.33;;;;;;;9.19;36.54;101392.66;5078672;28;20192;-69
2022/03/14 07:44:06;;;;;;;13.63;9.07;;;;;;;9.42;36.04;101386.91;5072185;28;20336;-69
2022/03/14 07:46:34;;;;;;;28.53;9.80;;;;;;;9.75;36.76;101385.56;5073961;28;20271;-69
2022/03/14 07:49:03;;;;;;;9.70;8.67;;;;;;;9.94;35.61;101391.66;5075968;28;20665;-69
2022/03/14 07:51:32;;;;;;;10.70;9.63;;;;;;;10.62;36.25;101395.66;5076360;28;20195;-67
2022/03/14 07:53:59;;;;;;;10.97;9.87;;;;;;;11.88;35.71;101401.38;5075557;28;20211;-67
2022/03/14 07:56:26;;;;;;;16.37;8.50;;;;;;;12.06;33.64;101396.81;5075878;28;20660;-67
2022/03/14 07:58:52;;;;;;;40.70;11.43;;;;;;;12.40;31.88;101394.97;5075790;28;20195;-66
2022/03/14 08:01:19;;;;;;;16.00;10.10;;;;;;;12.37;32.67;101392.59;5075507;28;20194;-68
2022/03/14 08:03:46;;;;;;;10.53;8.43;;;;;;;12.16;30.99;101388.72;5075196;28;20232;-71
2022/03/14 08:06:17;;;;;;;18.47;9.80;;;;;;;12.10;31.50;101392.84;5076494;28;20243;-72
2022/03/14 08:08:44;;;;;;;10.80;9.77;;;;;;;11.63;31.42;101388.09;5075833;28;20218;-71
2022/03/14 08:11:12;;;;;;;30.27;12.17;;;;;;;11.89;32.31;101392.41;5075624;28;20200;-72
2022/03/14 08:13:39;;;;;;;18.53;9.80;;;;;;;11.72;32.06;101393.28;5075259;28;20197;-72
2022/03/14 08:16:06;;;;;;;26.60;10.90;;;;;;;11.61;31.84;101393.56;5075707;28;20194;-72
2022/03/14 08:18:33;;;;;;;12.87;9.77;;;;;;;11.90;31.54;101390.56;5075101;28;20577;-69
2022/03/14 08:21:00;;;;;;;10.80;9.70;;;;;;;12.12;31.10;101387.38;5075362;28;20196;-72
2022/03/14 08:23:28;;;;;;;13.30;11.67;;;;;;;12.58;30.27;101401.00;5074772;28;20678;-70
2022/03/14 08:25:55;;;;;;;23.90;9.90;;;;;;;13.13;30.42;101402.16;5075477;28;20231;-71
2022/03/14 08:28:22;;;;;;;10.80;9.63;;;;;;;13.39;29.53;101392.13;5074814;28;20582;-71
2022/03/14 08:30:49;;;;;;;15.30;9.20;;;;;;;13.26;29.33;101398.97;5075128;28;20284;-70
2022/03/14 08:33:17;;;;;;;9.70;8.87;;;;;;;13.44;29.14;101403.13;5074853;28;20192;-70
2022/03/14 08:35:45;;;;;;;14.70;10.80;;;;;;;13.38;29.47;101401.16;5075354;28;20196;-70
2022/03/14 08:38:12;;;;;;;12.97;9.37;;;;;;;12.63;30.01;101401.38;5075002;28;20195;-73
2022/03/14 08:40:40;;;;;;;14.67;9.93;;;;;;;12.69;30.41;101403.38;5074598;28;20707;-69
2022/03/14 08:43:08;;;;;;;13.63;9.40;;;;;;;12.81;29.99;101399.41;5074499;28;20253;-71
2022/03/14 08:45:35;;;;;;;10.97;9.57;;;;;;;13.23;29.19;101394.81;5074809;28;20200;-70
2022/03/14 08:48:01;;;;;;;11.80;8.97;;;;;;;13.51;28.76;101401.47;5074871;28;20204;-72
2022/03/14 08:50:28;;;;;;;10.83;9.50;;;;;;;13.95;28.46;101397.38;5073397;28;20195;-72
2022/03/14 08:52:55;;;;;;;11.40;9.83;;;;;;;14.20;28.13;101401.66;5074638;28;20234;-71
2022/03/14 08:55:22;;;;;;;10.63;9.43;;;;;;;14.60;28.36;101392.63;5074741;28;20613;-72
2022/03/14 08:57:50;;;;;;;16.33;9.83;;;;;;;14.73;27.14;101396.41;5079252;28;20732;-70
2022/03/14 09:00:17;;;;;;;13.73;9.83;;;;;;;14.88;26.78;101397.31;5094668;28;20598;-70
2022/03/14 09:02:44;;;;;;;10.93;9.43;;;;;;;15.08;26.43;101398.47;5095099;28;20191;-71
2022/03/14 09:05:11;;;;;;;9.17;8.47;;;;;;;15.46;26.18;101397.56;5094741;28;20227;-71
2022/03/14 09:07:38;;;;;;;9.83;8.93;;;;;;;15.35;25.91;101399.81;5094461;28;20217;-72
2022/03/14 09:10:07;;;;;;;9.70;8.80;;;;;;;15.17;25.84;101402.78;5094796;28;20195;-71
2022/03/14 09:12:34;;;;;;;9.77;8.07;;;;;;;15.08;25.80;101389.63;5094366;28;20675;-73
2022/03/14 09:15:03;;;;;;;10.03;8.37;;;;;;;15.18;25.75;101388.38;5094987;28;20207;-73
2022/03/14 09:17:31;;;;;;;23.03;8.40;;;;;;;15.39;25.92;101393.94;5094645;28;20256;-72
2022/03/14 09:19:58;;;;;;;9.90;7.23;;;;;;;15.59;25.01;101400.44;5094759;28;20195;-71
2022/03/14 09:22:25;;;;;;;9.40;8.07;;;;;;;15.73;23.87;101398.81;5094039;28;20191;-69
2022/03/14 09:24:55;;;;;;;10.30;8.13;;;;;;;15.63;24.97;101388.34;5079559;28;20223;-69
2022/03/14 09:27:23;;;;;;;6.00;5.60;;;;;;;15.65;23.64;101399.69;5074186;28;20180;-69
2022/03/14 09:29:51;;;;;;;14.77;7.30;;;;;;;15.62;23.30;101393.88;5086584;28;20222;-69
2022/03/14 09:32:20;;;;;;;7.03;6.43;;;;;;;14.97;23.49;101396.25;5093991;28;20200;-69
2022/03/14 09:34:46;;;;;;;7.50;6.80;;;;;;;14.54;24.14;101401.38;5094066;28;20289;-67
2022/03/14 09:37:13;;;;;;;8.67;7.37;;;;;;;14.61;24.09;101403.16;5093896;28;20199;-70
2022/03/14 09:39:40;;;;;;;98.50;31.30;;;;;;;14.80;24.43;101405.41;5093704;28;20659;-70
2022/03/14 09:42:11;;;;;;;12.27;9.23;;;;;;;14.59;24.67;101399.81;5076926;28;20196;-69
2022/03/14 09:44:41;;;;;;;10.93;8.17;;;;;;;14.61;24.55;101400.47;5073464;28;20687;-70
2022/03/14 09:47:10;;;;;;;9.67;7.63;;;;;;;14.70;24.58;101393.25;5074648;28;20188;-69
2022/03/14 09:49:40;;;;;;;11.37;7.90;;;;;;;14.59;24.20;101399.81;5073291;28;20192;-69
2022/03/14 09:52:10;;;;;;;8.60;7.90;;;;;;;14.57;24.66;101403.66;5073885;28;20224;-70
2022/03/14 09:54:37;;;;;;;11.87;7.30;;;;;;;14.16;24.83;101399.47;5073245;28;20624;-67
2022/03/14 09:57:04;;;;;;;8.43;7.57;;;;;;;14.05;24.56;101405.22;5073254;28;20740;-67
2022/03/14 09:59:32;;;;;;;7.97;7.30;;;;;;;13.90;24.80;101394.41;5093211;28;20658;-68
2022/03/14 10:01:58;;;;;;;7.30;6.80;;;;;;;14.24;24.25;101402.16;5093364;28;20698;-68
2022/03/14 10:04:25;;;;;;;13.83;9.73;;;;;;;14.61;24.24;101402.31;5091859;28;20274;-68
2022/03/14 10:06:53;;;;;;;13.07;8.17;;;;;;;14.47;23.90;101409.25;5094365;28;20230;-68
2022/03/14 10:09:20;;;;;;;18.40;7.87;;;;;;;14.58;23.19;101411.53;5092936;28;20732;-68
2022/03/14 10:11:47;;;;;;;6.80;6.40;;;;;;;14.80;23.46;101405.41;5093519;28;20252;-69
2022/03/14 10:14:19;;;;;;;8.13;7.43;;;;;;;14.78;23.64;101402.03;5094234;28;20275;-69
2022/03/14 10:16:47;;;;;;;9.53;7.23;;;;;;;14.54;23.32;101399.50;5093015;28;20195;-67
2022/03/14 10:19:20;;;;;;;7.53;6.83;;;;;;;13.79;24.03;101399.25;5093922;28;20187;-68
2022/03/14 10:21:50;;;;;;;8.03;7.30;;;;;;;13.90;24.30;101399.75;5093803;28;20183;-67
2022/03/14 10:24:22;;;;;;;13.23;8.40;;;;;;;13.81;24.31;101399.94;5083196;28;20702;-69
2022/03/14 10:26:50;;;;;;;9.70;8.10;;;;;;;14.04;24.10;101393.69;5074139;28;20565;-69
2022/03/14 10:29:18;;;;;;;12.33;7.20;;;;;;;14.26;24.04;101374.22;5085092;28;20659;-68
2022/03/14 10:31:46;;;;;;;14.03;8.13;;;;;;;14.45;23.97;101389.88;5085430;28;20230;-68
2022/03/14 10:34:14;;;;;;;9.23;8.40;;;;;;;13.58;24.88;101389.13;5072838;28;20253;-69
2022/03/14 10:36:45;;;;;;;8.20;7.40;;;;;;;13.43;25.41;101382.78;5072833;28;20249;-69
2022/03/14 10:39:16;;;;;;;8.53;7.70;;;;;;;13.19;25.30;101388.13;5072967;28;20566;-68
2022/03/14 10:41:48;;;;;;;8.37;7.40;;;;;;;13.31;25.41;101381.47;5086388;28;20184;-68
2022/03/14 10:44:25;;;;;;;7.53;7.00;;;;;;;13.47;26.52;101369.91;5093185;28;20207;-68
2022/03/14 10:46:52;;;;;;;8.10;7.17;;;;;;;12.79;26.53;101372.09;5091836;28;20191;-69
2022/03/14 10:49:26;;;;;;;26.67;7.60;;;;;;;12.76;26.81;101360.88;5091658;28;20252;-68
2022/03/14 10:51:55;;;;;;;40.80;8.67;;;;;;;13.12;26.19;101355.13;5092497;28;20233;-68
2022/03/14 10:54:21;;;;;;;8.53;7.73;;;;;;;13.50;25.24;101365.09;5093067;28;20191;-68
2022/03/14 10:57:18;;;;;;;7.63;7.10;;;;;;;13.78;24.79;101362.88;5092756;28;20195;-69
2022/03/14 10:59:46;;;;;;;9.50;7.00;;;;;;;13.45;25.89;101364.78;5059582;28;20192;-69
2022/03/14 11:02:14;;;;;;;7.47;6.77;;;;;;;13.48;24.63;101361.75;5072359;28;20222;-68
2022/03/14 11:04:46;;;;;;;14.83;7.47;;;;;;;13.38;25.03;101355.75;5070588;28;20228;-69
2022/03/14 11:07:14;;;;;;;6.70;6.07;;;;;;;13.55;25.09;101357.41;5071417;28;20188;-70
2022/03/14 11:09:42;;;;;;;8.17;6.50;;;;;;;13.24;25.31;101356.44;5072165;28;20188;-68
2022/03/14 11:12:11;;;;;;;21.53;7.80;;;;;;;12.97;25.78;101350.56;5072141;28;20188;-68
2022/03/14 11:14:39;;;;;;;14.43;6.67;;;;;;;13.03;25.85;101355.28;5072862;28;20202;-68
2022/03/14 11:17:15;;;;;;;6.77;6.27;;;;;;;12.80;25.07;101352.41;5072110;28;20200;-68
2022/03/14 11:19:42;;;;;;;4.50;4.17;;;;;;;13.33;46.85;101336.75;5071947;28;20254;-74
2022/03/14 11:22:11;;;;;;;4.80;4.40;;;;;;;14.19;41.67;101330.47;5071274;28;20245;-75